createdAt,value
2018-03-29T00:00:31.367Z,6.63
2018-03-29T00:01:39.048Z,6.68
2018-03-29T00:02:53.604Z,6.71
2018-03-29T00:03:32.920Z,6.73
2018-03-29T00:04:45.726Z,6.66
2018-03-29T00:06:07.440Z,6.77
2018-03-29T00:06:57.412Z,6.72
2018-03-29T00:07:59.163Z,6.72
2018-03-29T00:09:19.956Z,6.71
2018-03-29T00:10:16.894Z,6.71
2018-03-29T00:11:26.741Z,6.73
2018-03-29T00:12:24.597Z,6.66
2018-03-29T00:13:51.316Z,6.69
2018-03-29T00:14:27.467Z,6.77
2018-03-29T00:15:38.129Z,6.76
2018-03-29T00:16:54.921Z,6.69
2018-03-29T00:17:45.828Z,6.68
2018-03-29T00:19:03.542Z,6.68
2018-03-29T00:20:13.990Z,6.65
2018-03-29T00:21:11.131Z,6.65
2018-03-29T00:22:12.365Z,6.63
2018-03-29T00:23:16.058Z,6.63
2018-03-29T00:24:26.920Z,6.59
2018-03-29T00:25:31.638Z,6.56
2018-03-29T00:26:37.378Z,6.63
2018-03-29T00:27:46.397Z,6.59
2018-03-29T00:30:06.993Z,6.66
2018-03-29T00:31:04.952Z,6.66
2018-03-29T00:34:36.513Z,6.68
2018-03-29T00:35:34.164Z,6.66
2018-03-29T00:37:33.360Z,6.61
2018-03-29T00:38:37.975Z,6.63
2018-03-29T00:39:57.545Z,6.62
2018-03-29T00:40:57.452Z,6.61
2018-03-29T00:43:01.147Z,6.65
2018-03-29T00:45:13.857Z,6.72
2018-03-29T00:46:23.591Z,6.76
2018-03-29T00:47:08.553Z,6.68
2018-03-29T00:48:48.388Z,6.72
2018-03-29T00:49:39.284Z,6.68
2018-03-29T00:51:49.021Z,6.73
2018-03-29T00:52:53.752Z,6.66
2018-03-29T00:54:00.505Z,6.73
2018-03-29T00:55:33.288Z,6.77
2018-03-29T00:56:20.180Z,6.72
2018-03-29T00:57:20.495Z,6.73
2018-03-29T00:58:16.008Z,6.73
2018-03-29T00:59:30.749Z,6.63
2018-03-29T01:01:40.490Z,6.68
2018-03-29T01:02:58.213Z,6.63
2018-03-29T01:03:49.110Z,6.79
2018-03-29T01:05:11.029Z,6.68
2018-03-29T01:06:00.385Z,6.71
2018-03-29T01:07:22.713Z,6.71
2018-03-29T01:09:44.541Z,6.76
2018-03-29T01:10:34.102Z,6.81
2018-03-29T01:11:39.953Z,6.79
2018-03-29T01:14:11.601Z,6.71
2018-03-29T01:14:53.587Z,6.69
2018-03-29T01:16:03.630Z,6.71
2018-03-29T01:17:08.345Z,6.73
2018-03-29T01:18:09.172Z,6.72
2018-03-29T01:19:35.807Z,6.71
2018-03-29T01:20:11.858Z,6.77
2018-03-29T01:21:36.534Z,6.76
2018-03-29T01:22:32.035Z,6.76
2018-03-29T01:23:23.030Z,6.86
2018-03-29T01:24:26.007Z,6.81
2018-03-29T01:25:36.260Z,6.73
2018-03-29T01:26:42.814Z,6.80
2018-03-29T01:27:48.762Z,6.76
2018-03-29T01:28:56.043Z,6.77
2018-03-29T01:30:19.497Z,6.76
2018-03-29T01:31:04.559Z,6.72
2018-03-29T01:32:30.060Z,6.71
2018-03-29T01:34:41.541Z,6.66
2018-03-29T01:35:51.691Z,6.72
2018-03-29T01:38:00.101Z,6.65
2018-03-29T01:39:57.856Z,6.69
2018-03-29T01:41:57.460Z,6.77
2018-03-29T01:43:20.406Z,6.73
2018-03-29T01:44:16.111Z,6.79
2018-03-29T01:45:28.000Z,6.77
2018-03-29T01:46:38.754Z,6.77
2018-03-29T01:47:28.628Z,6.71
2018-03-29T01:49:00.377Z,6.79
2018-03-29T01:49:44.307Z,6.71
2018-03-29T01:51:17.083Z,6.77
2018-03-29T01:52:00.910Z,6.73
2018-03-29T01:53:17.709Z,6.68
2018-03-29T01:54:15.471Z,6.73
2018-03-29T01:54:58.575Z,6.69
2018-03-29T01:56:27.358Z,6.73
2018-03-29T01:57:21.220Z,6.73
2018-03-29T01:59:32.806Z,6.68
2018-03-29T02:00:50.632Z,6.71
2018-03-29T02:01:43.673Z,6.71
2018-03-29T02:02:46.252Z,6.66
2018-03-29T02:04:09.800Z,6.80
2018-03-29T02:05:24.963Z,6.68
2018-03-29T02:06:04.906Z,6.76
2018-03-29T02:07:26.614Z,6.71
2018-03-29T02:08:23.550Z,6.72
2018-03-29T02:09:32.361Z,6.69
2018-03-29T02:10:29.196Z,6.69
2018-03-29T02:11:51.124Z,6.69
2018-03-29T02:12:33.714Z,6.73
2018-03-29T02:14:11.610Z,6.73
2018-03-29T02:14:51.648Z,6.77
2018-03-29T02:16:03.341Z,6.73
2018-03-29T02:17:01.188Z,6.72
2018-03-29T02:19:24.037Z,6.76
2018-03-29T02:20:48.013Z,6.86
2018-03-29T02:21:31.528Z,6.81
2018-03-29T02:22:33.377Z,6.79
2018-03-29T02:24:53.048Z,6.84
2018-03-29T02:26:02.897Z,6.71
2018-03-29T02:27:07.848Z,6.83
2018-03-29T02:30:16.230Z,6.87
2018-03-29T02:31:24.027Z,6.71
2018-03-29T02:32:37.951Z,6.80
2018-03-29T02:33:50.860Z,6.83
2018-03-29T02:34:43.701Z,6.77
2018-03-29T02:38:27.450Z,6.79
2018-03-29T02:39:24.236Z,6.77
2018-03-29T02:40:26.541Z,6.77
2018-03-29T02:41:31.871Z,6.79
2018-03-29T02:42:34.236Z,6.69
2018-03-29T02:43:38.448Z,6.76
2018-03-29T02:45:46.132Z,6.76
2018-03-29T02:46:55.971Z,6.71
2018-03-29T02:47:42.766Z,6.76
2018-03-29T02:48:58.543Z,6.79
2018-03-29T02:50:23.227Z,6.76
2018-03-29T02:51:07.262Z,6.77
2018-03-29T02:52:15.869Z,6.83
2018-03-29T02:53:11.577Z,6.81
2018-03-29T02:54:27.660Z,6.90
2018-03-29T02:55:27.565Z,6.91
2018-03-29T02:56:24.704Z,6.90
2018-03-29T02:57:44.166Z,6.95
2018-03-29T02:58:48.685Z,6.94
2018-03-29T03:00:09.884Z,6.94
2018-03-29T03:01:15.933Z,6.91
2018-03-29T03:02:33.654Z,6.91
2018-03-29T03:03:20.349Z,6.89
2018-03-29T03:04:33.361Z,6.89
2018-03-29T03:05:26.098Z,6.89
2018-03-29T03:06:35.834Z,6.89
2018-03-29T03:07:53.759Z,6.90
2018-03-29T03:08:44.044Z,6.90
2018-03-29T03:10:03.398Z,6.90
2018-03-29T03:11:07.295Z,6.87
2018-03-29T03:13:11.610Z,6.79
2018-03-29T03:14:21.656Z,6.79
2018-03-29T03:15:22.178Z,6.79
2018-03-29T03:16:20.543Z,6.81
2018-03-29T03:17:15.224Z,6.84
2018-03-29T03:19:46.880Z,6.83
2018-03-29T03:20:39.001Z,6.84
2018-03-29T03:21:31.638Z,6.80
2018-03-29T03:22:44.443Z,6.84
2018-03-29T03:24:05.141Z,6.80
2018-03-29T03:25:24.908Z,6.73
2018-03-29T03:26:20.202Z,6.81
2018-03-29T03:27:20.725Z,6.81
2018-03-29T03:28:37.328Z,6.86
2018-03-29T03:29:32.923Z,6.79
2018-03-29T03:30:49.315Z,6.89
2018-03-29T03:31:44.711Z,6.89
2018-03-29T03:32:46.975Z,6.95
2018-03-29T03:34:01.518Z,6.95
2018-03-29T03:35:27.432Z,6.95
2018-03-29T03:36:02.556Z,6.91
2018-03-29T03:37:30.111Z,6.91
2018-03-29T03:38:37.089Z,6.90
2018-03-29T03:39:59.721Z,6.94
2018-03-29T03:41:18.467Z,6.89
2018-03-29T03:42:04.136Z,6.89
2018-03-29T03:43:17.152Z,6.86
2018-03-29T03:44:21.968Z,6.89
2018-03-29T03:45:24.022Z,6.97
2018-03-29T03:46:08.771Z,6.91
2018-03-29T03:48:53.331Z,6.99
2018-03-29T03:49:55.283Z,7.08
2018-03-29T03:50:40.143Z,7.05
2018-03-29T03:52:04.820Z,7.15
2018-03-29T03:53:14.659Z,7.15
2018-03-29T03:54:06.265Z,7.08
2018-03-29T03:56:02.491Z,7.13
2018-03-29T04:01:43.181Z,6.99
2018-03-29T04:02:41.241Z,7.05
2018-03-29T04:04:16.986Z,6.98
2018-03-29T04:04:50.985Z,6.91
2018-03-29T04:06:24.169Z,6.87
2018-03-29T04:07:07.175Z,6.90
2018-03-29T04:08:26.332Z,6.94
2018-03-29T04:09:37.092Z,6.95
2018-03-29T04:10:42.021Z,6.89
2018-03-29T04:11:41.815Z,6.86
2018-03-29T04:13:38.453Z,6.84
2018-03-29T04:14:34.565Z,6.81
2018-03-29T04:15:38.055Z,6.73
2018-03-29T04:16:48.411Z,6.81
2018-03-29T04:17:48.206Z,6.91
2018-03-29T04:19:10.742Z,6.73
2018-03-29T04:20:07.676Z,6.71
2018-03-29T04:21:29.393Z,6.73
2018-03-29T04:22:27.146Z,6.66
2018-03-29T04:23:35.039Z,6.71
2018-03-29T04:24:41.599Z,6.73
2018-03-29T04:26:56.465Z,6.61
2018-03-29T04:31:15.945Z,6.65
2018-03-29T04:32:24.759Z,6.65
2018-03-29T04:33:16.574Z,6.62
2018-03-29T04:34:48.325Z,6.61
2018-03-29T04:35:34.199Z,6.66
2018-03-29T04:36:31.034Z,6.61
2018-03-29T04:38:45.792Z,6.58
2018-03-29T04:40:00.750Z,6.63
2018-03-29T04:40:41.608Z,6.66
2018-03-29T04:42:06.395Z,6.62
2018-03-29T04:45:17.784Z,6.54
2018-03-29T04:48:37.464Z,6.59
2018-03-29T04:49:37.276Z,6.51
2018-03-29T04:50:40.348Z,6.59
2018-03-29T04:52:05.851Z,6.62
2018-03-29T04:53:53.578Z,6.59
2018-03-29T04:55:07.410Z,6.61
2018-03-29T04:57:13.053Z,6.65
2018-03-29T04:58:04.868Z,6.72
2018-03-29T04:59:29.656Z,6.65
2018-03-29T05:00:35.604Z,6.68
2018-03-29T05:03:46.172Z,6.68
2018-03-29T05:07:04.932Z,6.76
2018-03-29T05:08:13.440Z,6.72
2018-03-29T05:09:22.353Z,6.72
2018-03-29T05:10:30.148Z,6.77
2018-03-29T05:11:27.182Z,6.73
2018-03-29T05:12:48.796Z,6.69
2018-03-29T05:15:51.893Z,6.69
2018-03-29T05:16:53.226Z,6.71
2018-03-29T05:18:08.797Z,6.69
2018-03-29T05:19:24.686Z,6.84
2018-03-29T05:21:17.624Z,6.72
2018-03-29T05:23:21.223Z,6.81
2018-03-29T05:25:35.879Z,6.79
2018-03-29T05:26:45.819Z,6.81
2018-03-29T05:28:03.868Z,6.76
2018-03-29T05:28:54.435Z,6.81
2018-03-29T05:29:51.369Z,6.79
2018-03-29T05:31:02.233Z,6.71
2018-03-29T05:33:21.088Z,6.81
2018-03-29T05:34:21.709Z,6.84
2018-03-29T05:35:35.234Z,6.91
2018-03-29T05:36:45.279Z,6.90
2018-03-29T05:37:46.203Z,6.90
2018-03-29T05:38:57.990Z,6.97
2018-03-29T05:40:05.498Z,6.89
2018-03-29T05:41:02.608Z,6.90
2018-03-29T05:42:13.470Z,6.91
2018-03-29T05:43:15.366Z,6.90
2018-03-29T05:44:35.193Z,6.86
2018-03-29T05:45:34.997Z,6.95
2018-03-29T05:46:38.793Z,6.87
2018-03-29T05:47:33.783Z,6.83
2018-03-29T05:48:50.589Z,6.83
2018-03-29T05:49:51.511Z,6.79
2018-03-29T05:51:18.142Z,6.79
2018-03-29T05:53:19.896Z,6.71
2018-03-29T05:54:27.992Z,6.72
2018-03-29T05:55:13.562Z,6.72
2018-03-29T05:56:16.537Z,6.71
2018-03-29T05:57:26.280Z,6.68
2018-03-29T05:58:34.165Z,6.72
2018-03-29T05:59:30.997Z,6.68
2018-03-29T06:00:39.811Z,6.68
2018-03-29T06:02:00.604Z,6.80
2018-03-29T06:02:59.500Z,6.72
2018-03-29T06:04:11.280Z,6.73
2018-03-29T06:05:08.817Z,6.76
2018-03-29T06:06:35.969Z,6.80
2018-03-29T06:07:22.869Z,6.73
2018-03-29T06:09:39.464Z,6.81
2018-03-29T06:10:38.345Z,6.87
2018-03-29T06:12:06.204Z,6.87
2018-03-29T06:13:04.265Z,6.87
2018-03-29T06:13:58.845Z,6.90
2018-03-29T06:15:23.736Z,6.91
2018-03-29T06:15:58.656Z,6.95
2018-03-29T06:17:50.528Z,6.99
2018-03-29T06:18:42.196Z,6.98
2018-03-29T06:21:58.814Z,7.04
2018-03-29T06:23:37.618Z,7.01
2018-03-29T06:24:41.413Z,7.05
2018-03-29T06:26:06.201Z,7.02
2018-03-29T06:27:06.002Z,7.12
2018-03-29T06:28:28.741Z,7.12
2018-03-29T06:29:22.712Z,7.08
2018-03-29T06:30:35.513Z,7.13
2018-03-29T06:33:06.046Z,7.27
2018-03-29T06:33:40.860Z,7.17
2018-03-29T06:35:22.750Z,7.27
2018-03-29T06:36:34.639Z,7.22
2018-03-29T06:39:05.266Z,7.34
2018-03-29T06:41:47.982Z,7.45
2018-03-29T06:42:33.757Z,7.56
2018-03-29T06:44:29.877Z,7.58
2018-03-29T06:45:41.255Z,7.52
2018-03-29T06:46:30.199Z,7.62
2018-03-29T06:47:36.047Z,7.58
2018-03-29T06:48:57.860Z,7.71
2018-03-29T06:50:20.601Z,7.69
2018-03-29T06:51:09.344Z,7.67
2018-03-29T06:52:09.146Z,7.63
2018-03-29T06:53:55.235Z,7.62
2018-03-29T06:54:53.703Z,7.63
2018-03-29T06:55:34.054Z,7.71
2018-03-29T06:57:19.328Z,7.77
2018-03-29T06:58:09.701Z,7.77
2018-03-29T06:59:22.304Z,7.89
2018-03-29T07:00:16.164Z,7.82
2018-03-29T07:01:36.141Z,7.75
2018-03-29T07:02:10.035Z,7.84
2018-03-29T07:03:14.138Z,7.82
2018-03-29T07:04:34.425Z,7.81
2018-03-29T07:05:24.699Z,7.89
2018-03-29T07:06:37.609Z,7.96
2018-03-29T07:07:52.360Z,7.89
2018-03-29T07:09:09.162Z,7.97
2018-03-29T07:10:05.897Z,7.93
2018-03-29T07:12:06.522Z,7.94
2018-03-29T07:13:08.677Z,7.92
2018-03-29T07:15:38.186Z,8.02
2018-03-29T07:20:08.523Z,8.08
2018-03-29T07:20:42.620Z,8.08
2018-03-29T07:23:15.814Z,8.17
2018-03-29T07:24:02.511Z,8.15
2018-03-29T07:25:09.683Z,8.21
2018-03-29T07:26:15.833Z,8.26
2018-03-29T07:27:32.432Z,8.26
2018-03-29T07:28:26.701Z,8.28
2018-03-29T07:29:20.993Z,8.33
2018-03-29T07:30:42.691Z,8.32
2018-03-29T07:31:37.066Z,8.29
2018-03-29T07:32:48.659Z,8.28
2018-03-29T07:34:01.260Z,8.32
2018-03-29T07:34:50.403Z,8.33
2018-03-29T07:36:04.441Z,8.30
2018-03-29T07:37:27.690Z,8.39
2018-03-29T07:38:40.391Z,8.33
2018-03-29T07:39:22.477Z,8.32
2018-03-29T07:41:37.854Z,8.35
2018-03-29T07:42:33.980Z,8.30
2018-03-29T07:43:41.348Z,8.36
2018-03-29T07:45:04.505Z,8.36
2018-03-29T07:46:50.380Z,8.36
2018-03-29T07:47:51.412Z,8.37
2018-03-29T07:49:35.964Z,8.44
2018-03-29T07:50:03.303Z,8.45
2018-03-29T07:51:27.583Z,8.40
2018-03-29T07:52:22.777Z,8.30
2018-03-29T07:53:48.080Z,8.26
2018-03-29T07:55:01.703Z,8.26
2018-03-29T07:55:47.885Z,8.22
2018-03-29T07:56:46.565Z,8.22
2018-03-29T07:57:48.000Z,8.25
2018-03-29T07:59:07.258Z,8.21
2018-03-29T08:00:05.420Z,8.17
2018-03-29T08:01:04.301Z,8.28
2018-03-29T08:03:15.886Z,8.21
2018-03-29T08:05:31.364Z,8.17
2018-03-29T08:07:43.977Z,8.18
2018-03-29T08:08:51.558Z,8.18
2018-03-29T08:09:50.130Z,8.22
2018-03-29T08:12:15.542Z,8.22
2018-03-29T08:13:16.267Z,8.20
2018-03-29T08:14:27.432Z,8.17
2018-03-29T08:17:35.339Z,8.03
2018-03-29T08:18:38.623Z,8.02
2018-03-29T08:19:40.983Z,8.00
2018-03-29T08:20:49.491Z,7.97
2018-03-29T08:22:09.978Z,7.99
2018-03-29T08:23:08.349Z,7.94
2018-03-29T08:23:57.196Z,7.97
2018-03-29T08:25:28.846Z,7.96
2018-03-29T08:26:19.019Z,8.00
2018-03-29T08:27:34.488Z,7.97
2018-03-29T08:28:40.024Z,8.00
2018-03-29T08:30:57.243Z,7.93
2018-03-29T08:32:11.189Z,7.97
2018-03-29T08:32:56.128Z,7.93
2018-03-29T08:33:49.889Z,8.00
2018-03-29T08:34:59.317Z,7.94
2018-03-29T08:36:12.329Z,7.92
2018-03-29T08:37:11.720Z,7.89
2018-03-29T08:38:25.452Z,7.82
2018-03-29T08:39:18.291Z,7.79
2018-03-29T08:40:24.746Z,7.81
2018-03-29T08:41:29.465Z,7.66
2018-03-29T08:42:55.385Z,7.62
2018-03-29T08:43:58.053Z,7.66
2018-03-29T08:45:31.130Z,7.55
2018-03-29T08:46:27.040Z,7.60
2018-03-29T08:47:23.468Z,7.59
2018-03-29T08:48:42.928Z,7.53
2018-03-29T08:49:18.259Z,7.55
2018-03-29T08:54:06.924Z,7.45
2018-03-29T08:55:28.743Z,7.38
2018-03-29T08:57:27.220Z,7.42
2018-03-29T08:58:39.115Z,7.49
2018-03-29T08:59:40.960Z,7.45
2018-03-29T09:01:26.844Z,7.45
2018-03-29T09:02:57.877Z,7.47
2018-03-29T09:04:21.433Z,7.37
2018-03-29T09:05:32.909Z,7.37
2018-03-29T09:07:17.973Z,7.41
2018-03-29T09:07:44.800Z,7.41
2018-03-29T09:09:43.692Z,7.32
2018-03-29T09:10:57.728Z,7.35
2018-03-29T09:13:13.203Z,7.40
2018-03-29T09:14:15.564Z,7.38
2018-03-29T09:16:58.589Z,7.50
2018-03-29T09:17:44.052Z,7.41
2018-03-29T09:19:31.573Z,7.44
2018-03-29T09:21:07.626Z,7.40
2018-03-29T09:23:24.739Z,7.42
2018-03-29T09:24:55.380Z,7.44
2018-03-29T09:27:21.195Z,7.53
2018-03-29T09:28:37.166Z,7.40
2018-03-29T09:31:04.218Z,7.55
2018-03-29T09:31:41.590Z,7.47
2018-03-29T09:32:49.378Z,7.56
2018-03-29T09:34:19.186Z,7.58
2018-03-29T09:36:37.631Z,7.56
2018-03-29T09:37:23.110Z,7.50
2018-03-29T09:38:39.592Z,7.44
2018-03-29T09:39:51.679Z,7.47
2018-03-29T09:40:44.211Z,7.44
2018-03-29T09:41:37.882Z,7.44
2018-03-29T09:42:47.913Z,7.60
2018-03-29T09:43:43.824Z,7.55
2018-03-29T09:47:01.559Z,7.59
2018-03-29T09:48:17.950Z,7.60
2018-03-29T09:51:31.695Z,7.71
2018-03-29T09:53:06.269Z,7.69
2018-03-29T09:53:47.885Z,7.81
2018-03-29T09:54:54.972Z,7.85
2018-03-29T09:55:45.033Z,7.81
2018-03-29T09:56:54.770Z,7.96
2018-03-29T09:58:11.995Z,7.99
2018-03-29T09:59:22.329Z,7.97
2018-03-29T10:00:12.812Z,8.11
2018-03-29T10:01:10.055Z,8.15
2018-03-29T10:03:30.035Z,8.18
2018-03-29T10:05:39.983Z,8.30
2018-03-29T10:06:49.922Z,8.39
2018-03-29T10:07:50.135Z,8.36
2018-03-29T10:08:58.639Z,8.44
2018-03-29T10:09:57.318Z,8.45
2018-03-29T10:11:14.833Z,8.44
2018-03-29T10:12:22.418Z,8.50
2018-03-29T10:13:26.522Z,8.53
2018-03-29T10:14:30.433Z,8.54
2018-03-29T10:16:57.366Z,8.54
2018-03-29T10:18:51.364Z,8.71
2018-03-29T10:19:55.953Z,8.72
2018-03-29T10:21:14.291Z,8.81
2018-03-29T10:22:02.322Z,8.84
2018-03-29T10:23:11.437Z,8.99
2018-03-29T10:24:14.415Z,9.01
2018-03-29T10:25:20.871Z,9.09
2018-03-29T10:26:25.691Z,9.12
2018-03-29T10:28:28.783Z,9.12
2018-03-29T10:29:39.435Z,9.20
2018-03-29T10:30:44.252Z,9.21
2018-03-29T10:32:54.200Z,9.32
2018-03-29T10:33:59.838Z,9.31
2018-03-29T10:35:02.611Z,9.32
2018-03-29T10:37:15.643Z,9.31
2018-03-29T10:38:25.468Z,9.35
2018-03-29T10:39:45.851Z,9.39
2018-03-29T10:40:32.037Z,9.35
2018-03-29T10:41:36.654Z,9.42
2018-03-29T10:43:47.417Z,9.35
2018-03-29T10:44:57.356Z,9.49
2018-03-29T10:46:00.230Z,9.46
2018-03-29T10:47:07.919Z,9.52
2018-03-29T10:48:24.819Z,9.46
2018-03-29T10:49:15.818Z,9.56
2018-03-29T10:50:15.436Z,9.49
2018-03-29T10:51:26.389Z,9.53
2018-03-29T10:52:37.345Z,9.56
2018-03-29T10:54:47.902Z,9.61
2018-03-29T10:56:57.029Z,9.76
2018-03-29T10:58:05.180Z,9.85
2018-03-29T10:59:10.869Z,9.94
2018-03-29T11:00:18.861Z,10.03
2018-03-29T11:01:15.488Z,10.10
2018-03-29T11:02:18.567Z,10.25
2018-03-29T11:03:27.073Z,10.21
2018-03-29T11:04:44.705Z,10.19
2018-03-29T11:05:37.738Z,10.22
2018-03-29T11:06:38.462Z,10.32
2018-03-29T11:08:57.424Z,10.37
2018-03-29T11:10:10.022Z,10.44
2018-03-29T11:11:12.180Z,10.59
2018-03-29T11:12:13.827Z,10.53
2018-03-29T11:13:19.472Z,10.46
2018-03-29T11:14:21.731Z,10.53
2018-03-29T11:15:26.238Z,10.37
2018-03-29T11:16:42.427Z,10.32
2018-03-29T11:17:40.178Z,10.26
2018-03-29T11:18:37.213Z,10.26
2018-03-29T11:19:54.936Z,10.34
2018-03-29T11:21:02.725Z,10.37
2018-03-29T11:21:55.987Z,10.47
2018-03-29T11:24:17.698Z,10.58
2018-03-29T11:25:23.848Z,10.56
2018-03-29T11:26:34.097Z,10.70
2018-03-29T11:27:28.068Z,10.58
2018-03-29T11:28:30.116Z,10.68
2018-03-29T11:29:42.922Z,10.62
2018-03-29T11:30:46.514Z,10.60
2018-03-29T11:34:15.212Z,10.73
2018-03-29T11:35:19.733Z,10.68
2018-03-29T11:36:17.474Z,10.68
2018-03-29T11:37:39.914Z,10.53
2018-03-29T11:38:13.904Z,10.71
2018-03-29T11:39:38.283Z,10.65
2018-03-29T11:40:36.959Z,10.89
2018-03-29T11:41:56.831Z,10.81
2018-03-29T11:43:57.868Z,10.96
2018-03-29T11:45:56.251Z,11.19
2018-03-29T11:49:21.353Z,11.43
2018-03-29T11:50:19.313Z,11.34
2018-03-29T11:51:27.409Z,11.38
2018-03-29T11:52:44.519Z,11.56
2018-03-29T11:53:53.807Z,11.59
2018-03-29T11:56:00.927Z,11.59
2018-03-29T11:57:04.616Z,11.56
2018-03-29T11:58:06.067Z,11.59
2018-03-29T11:59:11.902Z,11.62
2018-03-29T12:00:04.431Z,11.68
2018-03-29T12:01:15.910Z,11.72
2018-03-29T12:02:23.193Z,11.85
2018-03-29T12:03:40.089Z,11.71
2018-03-29T12:04:43.782Z,11.65
2018-03-29T12:05:44.610Z,11.61
2018-03-29T12:06:47.080Z,11.72
2018-03-29T12:07:54.247Z,11.96
2018-03-29T12:09:02.344Z,12.04
2018-03-29T12:10:12.387Z,12.13
2018-03-29T12:11:05.021Z,12.06
2018-03-29T12:12:19.377Z,12.11
2018-03-29T12:13:27.768Z,12.06
2018-03-29T12:15:35.053Z,12.06
2018-03-29T12:16:31.798Z,12.05
2018-03-29T12:17:38.041Z,12.06
2018-03-29T12:18:54.528Z,12.01
2018-03-29T12:19:54.128Z,11.85
2018-03-29T12:20:53.210Z,11.85
2018-03-29T12:22:02.027Z,11.80
2018-03-29T12:23:21.796Z,11.65
2018-03-29T12:25:19.252Z,11.57
2018-03-29T12:26:26.116Z,11.59
2018-03-29T12:27:29.503Z,11.54
2018-03-29T12:28:35.245Z,11.44
2018-03-29T12:29:40.890Z,11.53
2018-03-29T12:30:58.510Z,11.44
2018-03-29T12:31:52.058Z,11.47
2018-03-29T12:33:02.512Z,11.57
2018-03-29T12:34:16.145Z,11.59
2018-03-29T12:35:10.718Z,11.86
2018-03-29T12:37:24.967Z,12.16
2018-03-29T12:39:39.129Z,12.45
2018-03-29T12:40:37.990Z,12.69
2018-03-29T12:41:36.768Z,12.82
2018-03-29T12:42:56.953Z,13.02
2018-03-29T12:43:52.050Z,13.15
2018-03-29T12:46:13.561Z,13.32
2018-03-29T12:47:08.682Z,13.29
2018-03-29T12:48:06.826Z,13.32
2018-03-29T12:49:18.290Z,13.32
2018-03-29T12:50:54.857Z,13.27
2018-03-29T12:52:45.038Z,13.21
2018-03-29T12:54:54.779Z,13.30
2018-03-29T12:56:04.312Z,13.24
2018-03-29T12:57:18.142Z,13.37
2018-03-29T12:58:00.433Z,13.46
2018-03-29T13:00:30.143Z,13.46
2018-03-29T13:01:43.359Z,13.51
2018-03-29T13:02:32.108Z,13.58
2018-03-29T13:03:47.675Z,13.59
2018-03-29T13:04:52.093Z,13.63
2018-03-29T13:07:12.680Z,13.58
2018-03-29T13:08:28.524Z,13.41
2018-03-29T13:09:33.995Z,13.37
2018-03-29T13:11:03.391Z,13.32
2018-03-29T13:14:08.233Z,12.87
2018-03-29T13:14:50.207Z,12.78
2018-03-29T13:16:03.741Z,12.59
2018-03-29T13:19:15.222Z,12.49
2018-03-29T13:22:33.369Z,12.56
2018-03-29T13:23:28.768Z,12.59
2018-03-29T13:24:38.005Z,12.45
2018-03-29T13:25:36.871Z,12.29
2018-03-29T13:26:55.617Z,12.19
2018-03-29T13:28:59.317Z,11.93
2018-03-29T13:30:17.347Z,11.61
2018-03-29T13:31:23.910Z,11.52
2018-03-29T13:32:24.735Z,10.88
2018-03-29T13:33:28.735Z,10.58
2018-03-29T13:34:37.547Z,10.37
2018-03-29T13:35:39.509Z,9.81
2018-03-29T13:36:43.400Z,9.63
2018-03-29T13:40:09.839Z,9.25
2018-03-29T13:41:10.563Z,9.34
2018-03-29T13:42:17.840Z,9.24
2018-03-29T13:44:07.512Z,8.86
2018-03-29T13:45:20.219Z,8.72
2018-03-29T13:47:31.187Z,8.87
2018-03-29T13:48:46.042Z,9.60
2018-03-29T13:49:43.094Z,10.10
2018-03-29T13:50:55.068Z,10.28
2018-03-29T13:51:52.617Z,10.28
2018-03-29T13:55:31.961Z,11.35
2018-03-29T13:56:14.977Z,13.76
2018-03-29T13:57:25.830Z,16.27
2018-03-29T13:58:35.053Z,17.94
2018-03-29T13:59:42.637Z,18.80
2018-03-29T14:00:59.847Z,19.97
2018-03-29T14:02:43.784Z,21.38
2018-03-29T14:03:52.397Z,20.83
2018-03-29T14:04:55.581Z,20.02
2018-03-29T14:06:41.560Z,19.33
2018-03-29T14:08:17.919Z,17.87
2018-03-29T14:09:23.966Z,17.18
2018-03-29T14:10:24.281Z,16.78
2018-03-29T14:11:34.119Z,16.41
2018-03-29T14:12:34.331Z,16.12
2018-03-29T14:15:04.146Z,15.63
2018-03-29T14:16:09.185Z,15.33
2018-03-29T14:17:08.049Z,15.19
2018-03-29T14:19:12.363Z,14.68
2018-03-29T14:20:20.972Z,14.47
2018-03-29T14:22:27.237Z,14.24
2018-03-29T14:23:26.627Z,14.14
2018-03-29T14:24:39.332Z,13.98
2018-03-29T14:25:41.283Z,13.83
2018-03-29T14:26:50.300Z,13.74
2018-03-29T14:27:48.167Z,13.79
2018-03-29T14:28:52.979Z,13.62
2018-03-29T14:30:19.721Z,13.62
2018-03-29T14:31:12.653Z,13.69
2018-03-29T14:32:28.331Z,13.49
2018-03-29T14:33:16.456Z,13.43
2018-03-29T14:34:37.556Z,13.37
2018-03-29T14:35:32.135Z,13.40
2018-03-29T14:36:49.963Z,13.30
2018-03-29T14:37:54.987Z,13.30
2018-03-29T14:39:00.526Z,13.33
2018-03-29T14:40:18.757Z,13.21
2018-03-29T14:42:20.418Z,13.06
2018-03-29T14:43:31.888Z,13.09
2018-03-29T14:44:28.454Z,13.15
2018-03-29T14:45:28.111Z,12.92
2018-03-29T14:46:39.382Z,12.88
2018-03-29T14:48:32.741Z,12.89
2018-03-29T14:52:25.399Z,12.84
2018-03-29T14:53:24.687Z,12.82
2018-03-29T14:54:05.236Z,12.75
2018-03-29T14:55:07.435Z,12.56
2018-03-29T14:57:25.839Z,12.16
2018-03-29T14:58:24.719Z,11.90
2018-03-29T14:59:38.453Z,11.85
2018-03-29T15:00:48.900Z,11.68
2018-03-29T15:01:35.287Z,11.54
2018-03-29T15:03:08.781Z,11.52
2018-03-29T15:04:03.055Z,11.39
2018-03-29T15:04:59.681Z,11.01
2018-03-29T15:06:20.068Z,10.56
2018-03-29T15:07:21.570Z,10.59
2018-03-29T15:08:27.247Z,10.39
2018-03-29T15:09:26.844Z,10.24
2018-03-29T15:10:43.441Z,10.09
2018-03-29T15:11:41.604Z,10.12
2018-03-29T15:13:06.703Z,9.99
2018-03-29T15:13:46.649Z,10.00
2018-03-29T15:16:26.284Z,9.86
2018-03-29T15:17:10.825Z,9.76
2018-03-29T15:18:22.103Z,9.78
2018-03-29T15:19:08.382Z,9.67
2018-03-29T15:20:35.626Z,9.71
2018-03-29T15:21:20.387Z,9.71
2018-03-29T15:23:45.478Z,9.76
2018-03-29T15:25:51.745Z,9.82
2018-03-29T15:28:09.468Z,9.99
2018-03-29T15:29:09.063Z,10.10
2018-03-29T15:30:10.716Z,10.06
2018-03-29T15:31:29.254Z,10.12
2018-03-29T15:32:35.608Z,10.09
2018-03-29T15:33:25.987Z,10.12
2018-03-29T15:34:31.628Z,10.10
2018-03-29T15:35:44.338Z,10.21
2018-03-29T15:36:38.195Z,10.18
2018-03-29T15:38:55.514Z,10.24
2018-03-29T15:39:58.592Z,10.26
2018-03-29T15:41:14.577Z,10.21
2018-03-29T15:42:04.342Z,10.15
2018-03-29T15:43:16.023Z,10.06
2018-03-29T15:44:22.482Z,10.14
2018-03-29T15:46:32.648Z,9.99
2018-03-29T15:48:43.298Z,9.68
2018-03-29T15:49:54.467Z,9.60
2018-03-29T15:50:53.037Z,9.58
2018-03-29T15:53:09.844Z,9.61
2018-03-29T15:54:10.773Z,9.63
2018-03-29T15:55:19.484Z,9.75
2018-03-29T15:57:20.869Z,9.68
2018-03-29T15:58:38.449Z,9.76
2018-03-29T16:00:48.194Z,9.70
2018-03-29T16:01:50.760Z,9.68
2018-03-29T16:02:54.658Z,9.67
2018-03-29T16:04:03.470Z,9.67
2018-03-29T16:05:02.044Z,9.66
2018-03-29T16:06:11.165Z,9.57
2018-03-29T16:07:21.519Z,9.61
2018-03-29T16:08:19.783Z,9.66
2018-03-29T16:10:31.264Z,9.75
2018-03-29T16:11:36.187Z,9.83
2018-03-29T16:12:44.193Z,9.83
2018-03-29T16:15:10.204Z,9.91
2018-03-29T16:15:53.724Z,10.00
2018-03-29T16:17:13.707Z,10.03
2018-03-29T16:18:18.213Z,9.96
2018-03-29T16:19:17.303Z,10.06
2018-03-29T16:20:18.943Z,10.12
2018-03-29T16:21:32.569Z,10.07
2018-03-29T16:22:38.821Z,10.06
2018-03-29T16:23:51.127Z,10.04
2018-03-29T16:24:38.852Z,10.09
2018-03-29T16:25:49.807Z,10.14
2018-03-29T16:26:53.698Z,10.00
2018-03-29T16:28:06.201Z,10.00
2018-03-29T16:29:26.079Z,10.03
2018-03-29T16:30:32.937Z,9.99
2018-03-29T16:31:19.018Z,9.99
2018-03-29T16:32:27.935Z,10.03
2018-03-29T16:33:36.645Z,9.94
2018-03-29T16:34:35.628Z,9.88
2018-03-29T16:35:39.118Z,9.93
2018-03-29T16:39:01.565Z,9.91
2018-03-29T16:40:04.132Z,9.89
2018-03-29T16:41:18.577Z,9.91
2018-03-29T16:42:10.288Z,9.94
2018-03-29T16:43:17.361Z,9.97
2018-03-29T16:44:28.539Z,10.00
2018-03-29T16:45:27.000Z,10.03
2018-03-29T16:46:33.257Z,10.10
2018-03-29T16:47:50.371Z,10.43
2018-03-29T16:48:50.334Z,10.80
2018-03-29T16:49:59.387Z,10.68
2018-03-29T16:52:05.138Z,10.62
2018-03-29T16:53:10.774Z,10.53
2018-03-29T16:55:24.510Z,10.51
2018-03-29T16:56:36.601Z,10.46
2018-03-29T16:57:28.415Z,10.32
2018-03-29T16:58:39.280Z,10.32
2018-03-29T16:59:28.327Z,10.28
2018-03-29T17:00:51.170Z,10.32
2018-03-29T17:01:54.760Z,10.26
2018-03-29T17:03:08.389Z,10.25
2018-03-29T17:04:04.195Z,10.22
2018-03-29T17:05:09.834Z,10.18
2018-03-29T17:06:06.567Z,10.15
2018-03-29T17:07:22.341Z,10.18
2018-03-29T17:08:37.206Z,10.07
2018-03-29T17:09:46.421Z,10.10
2018-03-29T17:10:46.221Z,10.09
2018-03-29T17:11:49.301Z,10.04
2018-03-29T17:12:51.866Z,9.96
2018-03-29T17:13:52.600Z,9.96
2018-03-29T17:14:56.796Z,9.97
2018-03-29T17:16:04.791Z,9.96
2018-03-29T17:17:25.589Z,9.89
2018-03-29T17:18:27.642Z,9.94
2018-03-29T17:19:32.256Z,9.88
2018-03-29T17:20:38.098Z,9.83
2018-03-29T17:21:33.600Z,9.85
2018-03-29T17:23:43.453Z,9.71